sensor_id;sensor_type;location;lat;lon;timestamp;P1;durP1;ratioP1;P2;durP2;ratioP2
19505;SDS011;9894;50.852;-0.140;2022-10-16T00:01:19;22.15;;;3.15;;
19505;SDS011;9894;50.852;-0.140;2022-10-16T00:03:46;19.45;;;3.38;;
19505;SDS011;9894;50.852;-0.140;2022-10-16T00:06:12;22.80;;;3.20;;
19505;SDS011;9894;50.852;-0.140;2022-10-16T00:08:39;20.17;;;3.33;;
19505;SDS011;9894;50.852;-0.140;2022-10-16T00:11:07;21.25;;;3.00;;
19505;SDS011;9894;50.852;-0.140;2022-10-16T00:13:34;22.42;;;3.85;;
19505;SDS011;9894;50.852;-0.140;2022-10-16T00:16:01;23.88;;;3.60;;
19505;SDS011;9894;50.852;-0.140;2022-10-16T00:18:28;18.73;;;3.13;;
19505;SDS011;9894;50.852;-0.140;2022-10-16T00:20:54;23.55;;;3.00;;
19505;SDS011;9894;50.852;-0.140;2022-10-16T00:23:20;23.95;;;2.90;;
19505;SDS011;9894;50.852;-0.140;2022-10-16T00:26:00;27.65;;;3.10;;
19505;SDS011;9894;50.852;-0.140;2022-10-16T00:28:27;20.48;;;3.30;;
19505;SDS011;9894;50.852;-0.140;2022-10-16T00:30:53;28.30;;;3.67;;
19505;SDS011;9894;50.852;-0.140;2022-10-16T00:33:19;20.50;;;2.97;;
19505;SDS011;9894;50.852;-0.140;2022-10-16T00:35:46;23.17;;;2.92;;
19505;SDS011;9894;50.852;-0.140;2022-10-16T00:38:12;25.13;;;3.72;;
19505;SDS011;9894;50.852;-0.140;2022-10-16T00:40:38;24.83;;;4.00;;
19505;SDS011;9894;50.852;-0.140;2022-10-16T00:43:09;22.40;;;3.40;;
19505;SDS011;9894;50.852;-0.140;2022-10-16T00:45:37;27.45;;;3.72;;
19505;SDS011;9894;50.852;-0.140;2022-10-16T00:48:04;18.98;;;3.55;;
19505;SDS011;9894;50.852;-0.140;2022-10-16T00:50:31;27.40;;;3.55;;
19505;SDS011;9894;50.852;-0.140;2022-10-16T00:52:57;22.00;;;3.67;;
19505;SDS011;9894;50.852;-0.140;2022-10-16T00:55:24;20.80;;;3.38;;
19505;SDS011;9894;50.852;-0.140;2022-10-16T00:57:51;34.53;;;5.18;;
19505;SDS011;9894;50.852;-0.140;2022-10-16T01:00:19;19.48;;;3.65;;
19505;SDS011;9894;50.852;-0.140;2022-10-16T01:02:51;27.90;;;4.10;;
19505;SDS011;9894;50.852;-0.140;2022-10-16T01:05:17;28.33;;;4.20;;
19505;SDS011;9894;50.852;-0.140;2022-10-16T01:07:46;27.20;;;3.75;;
19505;SDS011;9894;50.852;-0.140;2022-10-16T01:10:27;16.60;;;4.03;;
19505;SDS011;9894;50.852;-0.140;2022-10-16T01:13:05;19.77;;;3.60;;
19505;SDS011;9894;50.852;-0.140;2022-10-16T01:18:18;30.13;;;3.47;;
19505;SDS011;9894;50.852;-0.140;2022-10-16T01:23:27;18.67;;;2.95;;
19505;SDS011;9894;50.852;-0.140;2022-10-16T01:25:59;22.85;;;3.45;;
19505;SDS011;9894;50.852;-0.140;2022-10-16T01:28:32;26.33;;;3.63;;
19505;SDS011;9894;50.852;-0.140;2022-10-16T01:31:00;29.52;;;4.18;;
19505;SDS011;9894;50.852;-0.140;2022-10-16T01:33:28;28.40;;;4.10;;
19505;SDS011;9894;50.852;-0.140;2022-10-16T01:35:58;19.35;;;3.30;;
19505;SDS011;9894;50.852;-0.140;2022-10-16T01:38:33;28.13;;;3.35;;
19505;SDS011;9894;50.852;-0.140;2022-10-16T01:41:11;18.02;;;3.13;;
19505;SDS011;9894;50.852;-0.140;2022-10-16T01:43:58;21.35;;;3.55;;
19505;SDS011;9894;50.852;-0.140;2022-10-16T01:46:28;19.15;;;3.03;;
19505;SDS011;9894;50.852;-0.140;2022-10-16T01:48:54;25.25;;;3.80;;
19505;SDS011;9894;50.852;-0.140;2022-10-16T01:51:21;26.05;;;4.00;;
19505;SDS011;9894;50.852;-0.140;2022-10-16T01:53:49;21.75;;;2.97;;
19505;SDS011;9894;50.852;-0.140;2022-10-16T01:56:17;18.90;;;3.00;;
19505;SDS011;9894;50.852;-0.140;2022-10-16T01:58:52;20.88;;;3.75;;
19505;SDS011;9894;50.852;-0.140;2022-10-16T02:01:19;26.52;;;3.90;;
19505;SDS011;9894;50.852;-0.140;2022-10-16T02:03:46;17.58;;;3.13;;
19505;SDS011;9894;50.852;-0.140;2022-10-16T02:06:16;16.73;;;2.92;;
19505;SDS011;9894;50.852;-0.140;2022-10-16T02:08:42;28.42;;;3.83;;
19505;SDS011;9894;50.852;-0.140;2022-10-16T02:11:09;27.00;;;3.88;;
19505;SDS011;9894;50.852;-0.140;2022-10-16T02:16:02;18.80;;;3.03;;
19505;SDS011;9894;50.852;-0.140;2022-10-16T02:18:28;23.80;;;3.45;;
19505;SDS011;9894;50.852;-0.140;2022-10-16T02:20:57;20.83;;;3.00;;
19505;SDS011;9894;50.852;-0.140;2022-10-16T02:23:27;19.83;;;3.42;;
19505;SDS011;9894;50.852;-0.140;2022-10-16T02:25:55;17.50;;;2.80;;
19505;SDS011;9894;50.852;-0.140;2022-10-16T02:28:23;14.05;;;2.67;;
19505;SDS011;9894;50.852;-0.140;2022-10-16T02:30:52;16.13;;;2.53;;
19505;SDS011;9894;50.852;-0.140;2022-10-16T02:33:22;12.27;;;2.45;;
19505;SDS011;9894;50.852;-0.140;2022-10-16T02:35:49;13.00;;;2.35;;
19505;SDS011;9894;50.852;-0.140;2022-10-16T02:38:16;14.82;;;2.40;;
19505;SDS011;9894;50.852;-0.140;2022-10-16T02:40:42;14.07;;;2.53;;
19505;SDS011;9894;50.852;-0.140;2022-10-16T02:43:09;17.65;;;2.53;;
19505;SDS011;9894;50.852;-0.140;2022-10-16T02:45:35;17.83;;;2.75;;
19505;SDS011;9894;50.852;-0.140;2022-10-16T02:48:01;15.13;;;2.53;;
19505;SDS011;9894;50.852;-0.140;2022-10-16T02:50:27;9.95;;;2.40;;
19505;SDS011;9894;50.852;-0.140;2022-10-16T02:52:54;14.75;;;2.33;;
19505;SDS011;9894;50.852;-0.140;2022-10-16T02:55:20;11.25;;;2.05;;
19505;SDS011;9894;50.852;-0.140;2022-10-16T02:57:46;18.38;;;2.50;;
19505;SDS011;9894;50.852;-0.140;2022-10-16T03:00:13;16.17;;;2.40;;
19505;SDS011;9894;50.852;-0.140;2022-10-16T03:02:39;14.20;;;2.30;;
19505;SDS011;9894;50.852;-0.140;2022-10-16T03:05:06;14.45;;;2.40;;
19505;SDS011;9894;50.852;-0.140;2022-10-16T03:07:32;14.88;;;2.60;;
19505;SDS011;9894;50.852;-0.140;2022-10-16T03:09:58;13.93;;;2.78;;
19505;SDS011;9894;50.852;-0.140;2022-10-16T03:12:27;16.25;;;2.85;;
19505;SDS011;9894;50.852;-0.140;2022-10-16T03:14:54;17.70;;;2.90;;
19505;SDS011;9894;50.852;-0.140;2022-10-16T03:17:21;20.88;;;2.45;;
19505;SDS011;9894;50.852;-0.140;2022-10-16T03:19:47;17.48;;;2.88;;
19505;SDS011;9894;50.852;-0.140;2022-10-16T03:22:13;19.65;;;3.70;;
19505;SDS011;9894;50.852;-0.140;2022-10-16T03:24:40;12.85;;;2.70;;
19505;SDS011;9894;50.852;-0.140;2022-10-16T03:27:06;12.23;;;2.75;;
19505;SDS011;9894;50.852;-0.140;2022-10-16T03:29:32;18.25;;;2.72;;
19505;SDS011;9894;50.852;-0.140;2022-10-16T03:31:59;17.30;;;2.78;;
19505;SDS011;9894;50.852;-0.140;2022-10-16T03:34:25;20.50;;;2.97;;
19505;SDS011;9894;50.852;-0.140;2022-10-16T03:36:51;19.20;;;2.47;;
19505;SDS011;9894;50.852;-0.140;2022-10-16T03:39:18;14.60;;;2.65;;
19505;SDS011;9894;50.852;-0.140;2022-10-16T03:41:44;15.30;;;2.17;;
19505;SDS011;9894;50.852;-0.140;2022-10-16T03:44:11;14.35;;;2.60;;
19505;SDS011;9894;50.852;-0.140;2022-10-16T03:46:37;20.92;;;2.80;;
19505;SDS011;9894;50.852;-0.140;2022-10-16T03:49:03;19.15;;;2.92;;
19505;SDS011;9894;50.852;-0.140;2022-10-16T03:51:30;18.55;;;3.38;;
19505;SDS011;9894;50.852;-0.140;2022-10-16T03:53:56;22.08;;;3.13;;
19505;SDS011;9894;50.852;-0.140;2022-10-16T03:56:22;20.05;;;3.00;;
19505;SDS011;9894;50.852;-0.140;2022-10-16T03:58:48;26.65;;;3.80;;
19505;SDS011;9894;50.852;-0.140;2022-10-16T04:01:14;18.67;;;3.47;;
19505;SDS011;9894;50.852;-0.140;2022-10-16T04:03:40;25.38;;;3.35;;
19505;SDS011;9894;50.852;-0.140;2022-10-16T04:06:06;21.70;;;3.20;;
19505;SDS011;9894;50.852;-0.140;2022-10-16T04:08:33;23.85;;;4.03;;
19505;SDS011;9894;50.852;-0.140;2022-10-16T04:11:02;24.25;;;3.60;;
19505;SDS011;9894;50.852;-0.140;2022-10-16T04:13:28;23.70;;;3.40;;
19505;SDS011;9894;50.852;-0.140;2022-10-16T04:15:54;22.23;;;3.95;;
19505;SDS011;9894;50.852;-0.140;2022-10-16T04:18:20;20.17;;;2.95;;
19505;SDS011;9894;50.852;-0.140;2022-10-16T04:20:46;21.40;;;3.50;;
19505;SDS011;9894;50.852;-0.140;2022-10-16T04:23:12;22.73;;;3.35;;
19505;SDS011;9894;50.852;-0.140;2022-10-16T04:25:38;19.48;;;3.30;;
19505;SDS011;9894;50.852;-0.140;2022-10-16T04:28:05;24.75;;;3.60;;
19505;SDS011;9894;50.852;-0.140;2022-10-16T04:30:31;20.63;;;3.45;;
19505;SDS011;9894;50.852;-0.140;2022-10-16T04:32:58;21.35;;;3.35;;
19505;SDS011;9894;50.852;-0.140;2022-10-16T04:35:25;22.45;;;4.28;;
19505;SDS011;9894;50.852;-0.140;2022-10-16T04:37:51;16.55;;;3.13;;
19505;SDS011;9894;50.852;-0.140;2022-10-16T04:40:17;18.63;;;3.00;;
19505;SDS011;9894;50.852;-0.140;2022-10-16T04:42:43;21.02;;;3.20;;
19505;SDS011;9894;50.852;-0.140;2022-10-16T04:45:09;22.92;;;3.33;;
19505;SDS011;9894;50.852;-0.140;2022-10-16T04:47:36;22.02;;;3.53;;
19505;SDS011;9894;50.852;-0.140;2022-10-16T04:50:02;22.38;;;3.63;;
19505;SDS011;9894;50.852;-0.140;2022-10-16T04:52:28;28.25;;;4.30;;
19505;SDS011;9894;50.852;-0.140;2022-10-16T04:54:56;20.90;;;3.47;;
19505;SDS011;9894;50.852;-0.140;2022-10-16T04:57:26;24.90;;;3.60;;
19505;SDS011;9894;50.852;-0.140;2022-10-16T04:59:52;21.33;;;3.17;;
19505;SDS011;9894;50.852;-0.140;2022-10-16T05:02:18;27.75;;;3.30;;
19505;SDS011;9894;50.852;-0.140;2022-10-16T05:04:44;21.63;;;3.10;;
19505;SDS011;9894;50.852;-0.140;2022-10-16T05:07:10;23.10;;;4.03;;
19505;SDS011;9894;50.852;-0.140;2022-10-16T05:09:37;22.75;;;3.30;;
19505;SDS011;9894;50.852;-0.140;2022-10-16T05:12:03;22.08;;;3.75;;
19505;SDS011;9894;50.852;-0.140;2022-10-16T05:14:29;25.55;;;3.25;;
19505;SDS011;9894;50.852;-0.140;2022-10-16T05:16:56;24.15;;;3.30;;
19505;SDS011;9894;50.852;-0.140;2022-10-16T05:19:22;25.90;;;3.30;;
19505;SDS011;9894;50.852;-0.140;2022-10-16T05:21:48;25.20;;;3.38;;
19505;SDS011;9894;50.852;-0.140;2022-10-16T05:24:14;20.60;;;3.33;;
19505;SDS011;9894;50.852;-0.140;2022-10-16T05:26:40;19.55;;;3.03;;
19505;SDS011;9894;50.852;-0.140;2022-10-16T05:29:06;23.77;;;3.03;;
19505;SDS011;9894;50.852;-0.140;2022-10-16T05:31:32;21.80;;;3.20;;
19505;SDS011;9894;50.852;-0.140;2022-10-16T05:33:59;24.30;;;3.47;;
19505;SDS011;9894;50.852;-0.140;2022-10-16T05:36:25;14.45;;;3.33;;
19505;SDS011;9894;50.852;-0.140;2022-10-16T05:38:51;23.27;;;3.13;;
19505;SDS011;9894;50.852;-0.140;2022-10-16T05:41:17;24.00;;;3.38;;
19505;SDS011;9894;50.852;-0.140;2022-10-16T05:43:46;18.88;;;3.47;;
19505;SDS011;9894;50.852;-0.140;2022-10-16T05:46:13;31.48;;;4.95;;
19505;SDS011;9894;50.852;-0.140;2022-10-16T05:48:39;21.15;;;3.20;;
19505;SDS011;9894;50.852;-0.140;2022-10-16T05:51:06;22.65;;;3.50;;
19505;SDS011;9894;50.852;-0.140;2022-10-16T05:53:33;24.10;;;2.88;;
19505;SDS011;9894;50.852;-0.140;2022-10-16T05:55:59;21.75;;;3.30;;
19505;SDS011;9894;50.852;-0.140;2022-10-16T05:58:29;22.48;;;3.25;;
19505;SDS011;9894;50.852;-0.140;2022-10-16T06:01:00;23.73;;;3.42;;
19505;SDS011;9894;50.852;-0.140;2022-10-16T06:03:26;23.45;;;2.97;;
19505;SDS011;9894;50.852;-0.140;2022-10-16T06:05:52;21.75;;;3.22;;
19505;SDS011;9894;50.852;-0.140;2022-10-16T06:08:20;21.02;;;3.17;;
19505;SDS011;9894;50.852;-0.140;2022-10-16T06:10:46;28.65;;;3.50;;
19505;SDS011;9894;50.852;-0.140;2022-10-16T06:13:13;23.27;;;3.20;;
19505;SDS011;9894;50.852;-0.140;2022-10-16T06:15:39;27.10;;;3.15;;
19505;SDS011;9894;50.852;-0.140;2022-10-16T06:18:07;18.30;;;3.10;;
19505;SDS011;9894;50.852;-0.140;2022-10-16T06:20:33;17.83;;;3.10;;
19505;SDS011;9894;50.852;-0.140;2022-10-16T06:23:00;19.15;;;3.33;;
19505;SDS011;9894;50.852;-0.140;2022-10-16T06:25:26;20.77;;;2.88;;
19505;SDS011;9894;50.852;-0.140;2022-10-16T06:27:52;18.85;;;3.67;;
19505;SDS011;9894;50.852;-0.140;2022-10-16T06:30:18;22.08;;;3.03;;
19505;SDS011;9894;50.852;-0.140;2022-10-16T06:32:44;15.70;;;2.63;;
19505;SDS011;9894;50.852;-0.140;2022-10-16T06:35:10;18.88;;;3.03;;
19505;SDS011;9894;50.852;-0.140;2022-10-16T06:37:36;18.67;;;3.10;;
19505;SDS011;9894;50.852;-0.140;2022-10-16T06:40:05;22.67;;;3.67;;
19505;SDS011;9894;50.852;-0.140;2022-10-16T06:42:39;18.85;;;3.00;;
19505;SDS011;9894;50.852;-0.140;2022-10-16T06:45:05;21.50;;;3.33;;
19505;SDS011;9894;50.852;-0.140;2022-10-16T06:47:31;18.25;;;2.80;;
19505;SDS011;9894;50.852;-0.140;2022-10-16T06:49:57;20.58;;;3.08;;
19505;SDS011;9894;50.852;-0.140;2022-10-16T06:52:24;18.15;;;3.45;;
19505;SDS011;9894;50.852;-0.140;2022-10-16T06:54:50;18.42;;;2.90;;
19505;SDS011;9894;50.852;-0.140;2022-10-16T06:57:16;14.18;;;2.67;;
19505;SDS011;9894;50.852;-0.140;2022-10-16T06:59:42;12.55;;;2.75;;
19505;SDS011;9894;50.852;-0.140;2022-10-16T07:02:08;16.65;;;3.10;;
19505;SDS011;9894;50.852;-0.140;2022-10-16T07:04:35;21.33;;;2.83;;
19505;SDS011;9894;50.852;-0.140;2022-10-16T07:07:01;16.63;;;2.75;;
19505;SDS011;9894;50.852;-0.140;2022-10-16T07:09:28;20.55;;;3.22;;
19505;SDS011;9894;50.852;-0.140;2022-10-16T07:11:54;18.17;;;3.17;;
19505;SDS011;9894;50.852;-0.140;2022-10-16T07:14:20;13.40;;;2.65;;
19505;SDS011;9894;50.852;-0.140;2022-10-16T07:16:47;20.60;;;3.60;;
19505;SDS011;9894;50.852;-0.140;2022-10-16T07:19:14;18.13;;;2.88;;
19505;SDS011;9894;50.852;-0.140;2022-10-16T07:21:42;23.88;;;3.22;;
19505;SDS011;9894;50.852;-0.140;2022-10-16T07:24:13;15.45;;;2.83;;
19505;SDS011;9894;50.852;-0.140;2022-10-16T07:26:40;16.95;;;2.83;;
19505;SDS011;9894;50.852;-0.140;2022-10-16T07:29:07;14.05;;;2.70;;
19505;SDS011;9894;50.852;-0.140;2022-10-16T07:31:33;19.80;;;3.17;;
19505;SDS011;9894;50.852;-0.140;2022-10-16T07:33:59;19.73;;;3.20;;
19505;SDS011;9894;50.852;-0.140;2022-10-16T07:36:25;13.80;;;2.67;;
19505;SDS011;9894;50.852;-0.140;2022-10-16T07:38:52;16.80;;;2.88;;
19505;SDS011;9894;50.852;-0.140;2022-10-16T07:41:19;22.50;;;3.00;;
19505;SDS011;9894;50.852;-0.140;2022-10-16T07:43:45;16.67;;;2.60;;
19505;SDS011;9894;50.852;-0.140;2022-10-16T07:46:12;19.40;;;3.25;;
19505;SDS011;9894;50.852;-0.140;2022-10-16T07:48:39;19.17;;;2.72;;
19505;SDS011;9894;50.852;-0.140;2022-10-16T07:51:06;18.08;;;2.85;;
19505;SDS011;9894;50.852;-0.140;2022-10-16T07:53:35;16.40;;;2.90;;
19505;SDS011;9894;50.852;-0.140;2022-10-16T07:56:02;14.50;;;3.33;;
19505;SDS011;9894;50.852;-0.140;2022-10-16T07:58:29;11.75;;;2.60;;
19505;SDS011;9894;50.852;-0.140;2022-10-16T08:00:56;16.67;;;2.75;;
19505;SDS011;9894;50.852;-0.140;2022-10-16T08:03:22;18.67;;;2.95;;
19505;SDS011;9894;50.852;-0.140;2022-10-16T08:05:49;19.38;;;3.08;;
19505;SDS011;9894;50.852;-0.140;2022-10-16T08:08:18;15.23;;;2.92;;
19505;SDS011;9894;50.852;-0.140;2022-10-16T08:10:44;14.25;;;3.28;;
19505;SDS011;9894;50.852;-0.140;2022-10-16T08:13:10;23.00;;;3.58;;
19505;SDS011;9894;50.852;-0.140;2022-10-16T08:15:37;16.58;;;3.03;;
19505;SDS011;9894;50.852;-0.140;2022-10-16T08:18:04;18.08;;;2.80;;
19505;SDS011;9894;50.852;-0.140;2022-10-16T08:20:31;20.67;;;3.10;;
19505;SDS011;9894;50.852;-0.140;2022-10-16T08:22:57;15.25;;;3.08;;
19505;SDS011;9894;50.852;-0.140;2022-10-16T08:25:24;16.98;;;3.00;;
19505;SDS011;9894;50.852;-0.140;2022-10-16T08:27:51;16.38;;;2.47;;
19505;SDS011;9894;50.852;-0.140;2022-10-16T08:30:17;17.23;;;2.85;;
19505;SDS011;9894;50.852;-0.140;2022-10-16T08:32:44;24.05;;;3.40;;
19505;SDS011;9894;50.852;-0.140;2022-10-16T08:35:10;19.38;;;4.00;;
19505;SDS011;9894;50.852;-0.140;2022-10-16T08:37:36;21.52;;;3.20;;
19505;SDS011;9894;50.852;-0.140;2022-10-16T08:40:03;15.10;;;2.95;;
19505;SDS011;9894;50.852;-0.140;2022-10-16T08:45:00;26.77;;;4.10;;
19505;SDS011;9894;50.852;-0.140;2022-10-16T08:47:45;12.07;;;2.72;;
19505;SDS011;9894;50.852;-0.140;2022-10-16T08:50:25;22.02;;;3.20;;
19505;SDS011;9894;50.852;-0.140;2022-10-16T08:52:53;18.10;;;3.17;;
19505;SDS011;9894;50.852;-0.140;2022-10-16T08:58:01;19.23;;;3.17;;
19505;SDS011;9894;50.852;-0.140;2022-10-16T09:00:27;15.68;;;3.58;;
19505;SDS011;9894;50.852;-0.140;2022-10-16T09:03:06;18.80;;;3.05;;
19505;SDS011;9894;50.852;-0.140;2022-10-16T09:10:56;19.40;;;3.10;;
19505;SDS011;9894;50.852;-0.140;2022-10-16T09:13:48;15.68;;;3.17;;
19505;SDS011;9894;50.852;-0.140;2022-10-16T09:16:18;20.98;;;3.72;;
19505;SDS011;9894;50.852;-0.140;2022-10-16T09:21:42;16.88;;;3.65;;
19505;SDS011;9894;50.852;-0.140;2022-10-16T09:24:19;16.70;;;3.30;;
19505;SDS011;9894;50.852;-0.140;2022-10-16T09:26:46;23.35;;;3.80;;
19505;SDS011;9894;50.852;-0.140;2022-10-16T09:29:17;17.70;;;4.47;;
19505;SDS011;9894;50.852;-0.140;2022-10-16T09:31:45;22.48;;;5.20;;
19505;SDS011;9894;50.852;-0.140;2022-10-16T09:34:25;17.25;;;4.82;;
19505;SDS011;9894;50.852;-0.140;2022-10-16T09:36:53;13.32;;;3.83;;
19505;SDS011;9894;50.852;-0.140;2022-10-16T09:39:19;13.73;;;4.03;;
19505;SDS011;9894;50.852;-0.140;2022-10-16T09:41:45;18.45;;;5.30;;
19505;SDS011;9894;50.852;-0.140;2022-10-16T09:44:46;17.17;;;5.32;;
19505;SDS011;9894;50.852;-0.140;2022-10-16T09:47:15;25.05;;;8.20;;
19505;SDS011;9894;50.852;-0.140;2022-10-16T09:49:52;21.13;;;11.50;;
19505;SDS011;9894;50.852;-0.140;2022-10-16T09:52:20;23.02;;;12.43;;
19505;SDS011;9894;50.852;-0.140;2022-10-16T09:54:50;18.27;;;11.52;;
19505;SDS011;9894;50.852;-0.140;2022-10-16T09:57:16;21.95;;;10.45;;
19505;SDS011;9894;50.852;-0.140;2022-10-16T09:59:53;26.67;;;10.82;;
19505;SDS011;9894;50.852;-0.140;2022-10-16T10:02:23;22.67;;;11.80;;
19505;SDS011;9894;50.852;-0.140;2022-10-16T10:04:52;25.55;;;13.35;;
19505;SDS011;9894;50.852;-0.140;2022-10-16T10:07:30;21.15;;;14.25;;
19505;SDS011;9894;50.852;-0.140;2022-10-16T10:10:01;19.20;;;13.25;;
19505;SDS011;9894;50.852;-0.140;2022-10-16T10:12:28;25.33;;;14.70;;
19505;SDS011;9894;50.852;-0.140;2022-10-16T10:14:56;25.58;;;13.48;;
19505;SDS011;9894;50.852;-0.140;2022-10-16T10:17:23;23.83;;;14.40;;
19505;SDS011;9894;50.852;-0.140;2022-10-16T10:19:50;20.63;;;15.05;;
19505;SDS011;9894;50.852;-0.140;2022-10-16T10:22:17;21.83;;;14.50;;
19505;SDS011;9894;50.852;-0.140;2022-10-16T10:24:54;19.92;;;12.95;;
19505;SDS011;9894;50.852;-0.140;2022-10-16T10:27:20;23.80;;;13.77;;
19505;SDS011;9894;50.852;-0.140;2022-10-16T10:30:10;23.92;;;15.80;;
19505;SDS011;9894;50.852;-0.140;2022-10-16T10:32:54;29.85;;;14.73;;
19505;SDS011;9894;50.852;-0.140;2022-10-16T10:35:22;34.65;;;14.98;;
19505;SDS011;9894;50.852;-0.140;2022-10-16T10:43:10;22.02;;;13.02;;
19505;SDS011;9894;50.852;-0.140;2022-10-16T10:50:49;27.40;;;12.98;;
19505;SDS011;9894;50.852;-0.140;2022-10-16T10:53:36;21.20;;;13.52;;
19505;SDS011;9894;50.852;-0.140;2022-10-16T11:01:29;21.35;;;14.18;;
19505;SDS011;9894;50.852;-0.140;2022-10-16T11:06:43;25.95;;;12.85;;
19505;SDS011;9894;50.852;-0.140;2022-10-16T11:09:12;27.05;;;12.68;;
19505;SDS011;9894;50.852;-0.140;2022-10-16T11:11:44;21.48;;;13.07;;
19505;SDS011;9894;50.852;-0.140;2022-10-16T11:16:39;23.05;;;11.88;;
19505;SDS011;9894;50.852;-0.140;2022-10-16T11:19:14;32.90;;;12.98;;
19505;SDS011;9894;50.852;-0.140;2022-10-16T11:22:03;22.40;;;11.55;;
19505;SDS011;9894;50.852;-0.140;2022-10-16T11:26:56;20.13;;;10.77;;
19505;SDS011;9894;50.852;-0.140;2022-10-16T11:29:27;17.10;;;11.25;;
19505;SDS011;9894;50.852;-0.140;2022-10-16T11:31:57;21.08;;;12.88;;
19505;SDS011;9894;50.852;-0.140;2022-10-16T11:36:52;19.42;;;11.38;;
19505;SDS011;9894;50.852;-0.140;2022-10-16T11:39:20;21.92;;;12.43;;
19505;SDS011;9894;50.852;-0.140;2022-10-16T11:46:43;16.23;;;11.18;;
19505;SDS011;9894;50.852;-0.140;2022-10-16T11:49:15;18.80;;;10.52;;
19505;SDS011;9894;50.852;-0.140;2022-10-16T11:51:56;24.95;;;10.73;;
19505;SDS011;9894;50.852;-0.140;2022-10-16T11:57:14;13.25;;;9.68;;
19505;SDS011;9894;50.852;-0.140;2022-10-16T11:59:43;17.13;;;10.57;;
19505;SDS011;9894;50.852;-0.140;2022-10-16T12:04:43;16.00;;;9.35;;
19505;SDS011;9894;50.852;-0.140;2022-10-16T12:07:24;23.90;;;10.23;;
19505;SDS011;9894;50.852;-0.140;2022-10-16T12:09:53;13.85;;;10.20;;
19505;SDS011;9894;50.852;-0.140;2022-10-16T12:14:59;22.98;;;10.13;;
19505;SDS011;9894;50.852;-0.140;2022-10-16T12:17:35;18.08;;;9.90;;
19505;SDS011;9894;50.852;-0.140;2022-10-16T12:22:41;17.17;;;10.43;;
19505;SDS011;9894;50.852;-0.140;2022-10-16T12:25:32;16.45;;;9.73;;
19505;SDS011;9894;50.852;-0.140;2022-10-16T12:28:00;18.88;;;9.90;;
19505;SDS011;9894;50.852;-0.140;2022-10-16T12:30:27;18.75;;;10.90;;
19505;SDS011;9894;50.852;-0.140;2022-10-16T12:32:55;19.27;;;9.55;;
19505;SDS011;9894;50.852;-0.140;2022-10-16T12:35:32;19.85;;;10.50;;
19505;SDS011;9894;50.852;-0.140;2022-10-16T12:38:11;16.45;;;10.10;;
19505;SDS011;9894;50.852;-0.140;2022-10-16T12:40:40;20.63;;;10.88;;
19505;SDS011;9894;50.852;-0.140;2022-10-16T12:43:12;20.42;;;10.55;;
19505;SDS011;9894;50.852;-0.140;2022-10-16T12:45:39;16.23;;;9.30;;
19505;SDS011;9894;50.852;-0.140;2022-10-16T12:48:18;20.95;;;10.27;;
19505;SDS011;9894;50.852;-0.140;2022-10-16T12:50:45;19.25;;;10.05;;
19505;SDS011;9894;50.852;-0.140;2022-10-16T12:53:18;19.73;;;9.45;;
19505;SDS011;9894;50.852;-0.140;2022-10-16T12:56:09;20.63;;;10.02;;
19505;SDS011;9894;50.852;-0.140;2022-10-16T13:09:02;16.17;;;8.98;;
19505;SDS011;9894;50.852;-0.140;2022-10-16T13:14:15;13.80;;;7.80;;
19505;SDS011;9894;50.852;-0.140;2022-10-16T13:22:11;13.25;;;6.63;;
19505;SDS011;9894;50.852;-0.140;2022-10-16T13:29:34;11.18;;;5.47;;
19505;SDS011;9894;50.852;-0.140;2022-10-16T13:32:00;14.70;;;6.22;;
19505;SDS011;9894;50.852;-0.140;2022-10-16T13:34:27;17.55;;;5.75;;
19505;SDS011;9894;50.852;-0.140;2022-10-16T13:36:53;11.77;;;4.93;;
19505;SDS011;9894;50.852;-0.140;2022-10-16T13:39:27;16.10;;;5.30;;
19505;SDS011;9894;50.852;-0.140;2022-10-16T13:42:06;14.63;;;5.20;;
19505;SDS011;9894;50.852;-0.140;2022-10-16T13:44:54;17.42;;;5.50;;
19505;SDS011;9894;50.852;-0.140;2022-10-16T13:47:21;10.77;;;4.95;;
19505;SDS011;9894;50.852;-0.140;2022-10-16T13:49:59;10.00;;;4.80;;
19505;SDS011;9894;50.852;-0.140;2022-10-16T13:52:26;11.00;;;4.40;;
19505;SDS011;9894;50.852;-0.140;2022-10-16T13:54:52;10.52;;;3.92;;
19505;SDS011;9894;50.852;-0.140;2022-10-16T13:57:18;11.70;;;4.05;;
19505;SDS011;9894;50.852;-0.140;2022-10-16T13:59:47;10.43;;;3.40;;
19505;SDS011;9894;50.852;-0.140;2022-10-16T14:04:45;11.40;;;3.03;;
19505;SDS011;9894;50.852;-0.140;2022-10-16T14:07:20;10.45;;;3.38;;
19505;SDS011;9894;50.852;-0.140;2022-10-16T14:09:48;7.97;;;3.10;;
19505;SDS011;9894;50.852;-0.140;2022-10-16T14:12:15;8.50;;;2.80;;
19505;SDS011;9894;50.852;-0.140;2022-10-16T14:14:49;9.35;;;3.47;;
19505;SDS011;9894;50.852;-0.140;2022-10-16T14:17:18;8.82;;;3.13;;
19505;SDS011;9894;50.852;-0.140;2022-10-16T14:19:48;11.52;;;4.32;;
19505;SDS011;9894;50.852;-0.140;2022-10-16T14:22:23;6.95;;;3.30;;
19505;SDS011;9894;50.852;-0.140;2022-10-16T14:24:50;8.82;;;3.25;;
19505;SDS011;9894;50.852;-0.140;2022-10-16T14:27:33;11.52;;;2.80;;
19505;SDS011;9894;50.852;-0.140;2022-10-16T14:30:12;11.15;;;2.70;;
19505;SDS011;9894;50.852;-0.140;2022-10-16T14:32:52;10.43;;;3.08;;
19505;SDS011;9894;50.852;-0.140;2022-10-16T14:35:32;11.73;;;3.03;;
19505;SDS011;9894;50.852;-0.140;2022-10-16T14:37:59;10.13;;;2.03;;
19505;SDS011;9894;50.852;-0.140;2022-10-16T14:40:27;8.60;;;2.00;;
19505;SDS011;9894;50.852;-0.140;2022-10-16T14:42:53;11.05;;;2.35;;
19505;SDS011;9894;50.852;-0.140;2022-10-16T14:45:28;12.23;;;2.38;;
19505;SDS011;9894;50.852;-0.140;2022-10-16T14:48:01;7.53;;;2.28;;
19505;SDS011;9894;50.852;-0.140;2022-10-16T14:50:28;10.82;;;2.50;;
19505;SDS011;9894;50.852;-0.140;2022-10-16T14:52:55;12.40;;;2.30;;
19505;SDS011;9894;50.852;-0.140;2022-10-16T14:55:21;9.27;;;2.05;;
19505;SDS011;9894;50.852;-0.140;2022-10-16T14:57:47;10.55;;;2.10;;
19505;SDS011;9894;50.852;-0.140;2022-10-16T15:00:18;8.85;;;1.88;;
19505;SDS011;9894;50.852;-0.140;2022-10-16T15:02:45;9.70;;;2.45;;
19505;SDS011;9894;50.852;-0.140;2022-10-16T15:07:41;10.10;;;2.15;;
19505;SDS011;9894;50.852;-0.140;2022-10-16T15:10:08;10.52;;;1.90;;
19505;SDS011;9894;50.852;-0.140;2022-10-16T15:12:34;12.93;;;2.15;;
19505;SDS011;9894;50.852;-0.140;2022-10-16T15:15:00;10.82;;;2.10;;
19505;SDS011;9894;50.852;-0.140;2022-10-16T15:17:26;7.28;;;1.80;;
19505;SDS011;9894;50.852;-0.140;2022-10-16T15:19:52;11.07;;;2.20;;
19505;SDS011;9894;50.852;-0.140;2022-10-16T15:22:18;10.07;;;2.15;;
19505;SDS011;9894;50.852;-0.140;2022-10-16T15:24:48;10.30;;;2.15;;
19505;SDS011;9894;50.852;-0.140;2022-10-16T15:27:14;8.73;;;1.95;;
19505;SDS011;9894;50.852;-0.140;2022-10-16T15:29:40;7.75;;;2.20;;
19505;SDS011;9894;50.852;-0.140;2022-10-16T15:32:08;9.32;;;2.20;;
19505;SDS011;9894;50.852;-0.140;2022-10-16T15:34:34;11.98;;;2.05;;
19505;SDS011;9894;50.852;-0.140;2022-10-16T15:37:02;10.60;;;2.10;;
19505;SDS011;9894;50.852;-0.140;2022-10-16T15:39:28;8.05;;;2.00;;
19505;SDS011;9894;50.852;-0.140;2022-10-16T15:41:54;11.88;;;2.60;;
19505;SDS011;9894;50.852;-0.140;2022-10-16T15:44:21;12.05;;;2.20;;
19505;SDS011;9894;50.852;-0.140;2022-10-16T15:46:54;7.75;;;2.40;;
19505;SDS011;9894;50.852;-0.140;2022-10-16T15:49:21;13.48;;;2.50;;
19505;SDS011;9894;50.852;-0.140;2022-10-16T15:51:47;9.95;;;2.20;;
19505;SDS011;9894;50.852;-0.140;2022-10-16T15:54:13;9.38;;;2.17;;
19505;SDS011;9894;50.852;-0.140;2022-10-16T15:56:40;9.05;;;2.00;;
19505;SDS011;9894;50.852;-0.140;2022-10-16T15:59:06;10.07;;;1.80;;
19505;SDS011;9894;50.852;-0.140;2022-10-16T16:01:33;7.78;;;2.60;;
19505;SDS011;9894;50.852;-0.140;2022-10-16T16:03:59;10.07;;;2.92;;
19505;SDS011;9894;50.852;-0.140;2022-10-16T16:06:26;7.80;;;1.90;;
19505;SDS011;9894;50.852;-0.140;2022-10-16T16:08:52;10.73;;;1.98;;
19505;SDS011;9894;50.852;-0.140;2022-10-16T16:11:18;12.60;;;2.42;;
19505;SDS011;9894;50.852;-0.140;2022-10-16T16:13:45;5.88;;;2.00;;